createdAt,value
2018-12-27T00:01:02.698Z,20.03
2018-12-27T00:03:33.639Z,21.23
2018-12-27T00:06:04.378Z,20.90
2018-12-27T00:08:35.658Z,21.17
2018-12-27T00:11:06.305Z,22.37
2018-12-27T00:13:37.907Z,19.57
2018-12-27T00:16:08.778Z,20.67
2018-12-27T00:18:39.605Z,20.40
2018-12-27T00:21:10.480Z,21.70
2018-12-27T00:23:41.302Z,20.37
2018-12-27T00:26:12.114Z,43.17
2018-12-27T00:28:43.012Z,20.57
2018-12-27T00:31:13.910Z,20.80
2018-12-27T00:33:44.746Z,20.20
2018-12-27T00:36:15.666Z,21.53
2018-12-27T00:38:46.594Z,22.50
2018-12-27T00:41:17.562Z,20.63
2018-12-27T00:43:48.422Z,22.67
2018-12-27T00:46:19.392Z,20.53
2018-12-27T00:48:50.327Z,20.60
2018-12-27T00:51:21.212Z,21.90
2018-12-27T00:53:52.146Z,21.87
2018-12-27T00:56:23.042Z,21.37
2018-12-27T00:58:53.854Z,21.77
2018-12-27T01:01:24.789Z,20.30
2018-12-27T01:03:55.589Z,22.03
2018-12-27T01:06:25.752Z,20.40
2018-12-27T01:08:57.262Z,21.23
2018-12-27T01:11:27.941Z,18.77
2018-12-27T01:13:58.740Z,19.87
2018-12-27T01:16:29.584Z,18.90
2018-12-27T01:19:00.449Z,19.97
2018-12-27T01:21:31.351Z,20.47
2018-12-27T01:24:03.102Z,20.40
2018-12-27T01:26:33.920Z,19.53
2018-12-27T01:29:04.794Z,19.43
2018-12-27T01:31:35.696Z,19.80
2018-12-27T01:34:06.605Z,19.27
2018-12-27T01:36:37.457Z,19.40
2018-12-27T01:39:08.262Z,20.37
2018-12-27T01:41:39.158Z,22.67
2018-12-27T01:44:10.034Z,19.87
2018-12-27T01:46:40.950Z,18.57
2018-12-27T01:49:11.862Z,17.77
2018-12-27T01:51:42.780Z,19.27
2018-12-27T01:54:13.681Z,21.30
2018-12-27T01:56:44.581Z,21.40
2018-12-27T01:59:15.313Z,21.20
2018-12-27T02:01:46.125Z,21.83
2018-12-27T02:04:17.006Z,20.60
2018-12-27T02:06:47.898Z,21.70
2018-12-27T02:09:18.772Z,19.60
2018-12-27T02:11:49.589Z,18.50
2018-12-27T02:14:20.470Z,21.73
2018-12-27T02:16:51.281Z,19.77
2018-12-27T02:19:22.065Z,20.67
2018-12-27T02:21:52.906Z,18.67
2018-12-27T02:24:23.638Z,20.57
2018-12-27T02:26:54.445Z,19.33
2018-12-27T02:29:25.234Z,19.77
2018-12-27T02:31:56.057Z,20.10
2018-12-27T02:34:26.851Z,19.67
2018-12-27T02:36:57.606Z,19.67
2018-12-27T02:39:28.337Z,18.53
2018-12-27T02:41:59.233Z,18.53
2018-12-27T02:44:30.036Z,18.57
2018-12-27T02:47:00.769Z,18.63
2018-12-27T02:49:31.646Z,19.63
2018-12-27T02:52:02.467Z,16.97
2018-12-27T02:54:33.326Z,18.30
2018-12-27T02:57:04.222Z,19.20
2018-12-27T02:59:35.104Z,18.13
2018-12-27T03:02:06.024Z,19.57
2018-12-27T03:04:36.881Z,19.83
2018-12-27T03:07:07.785Z,20.77
2018-12-27T03:09:38.653Z,18.93
2018-12-27T03:12:09.797Z,20.10
2018-12-27T03:14:40.675Z,20.47
2018-12-27T03:17:11.598Z,18.60
2018-12-27T03:19:42.481Z,19.07
2018-12-27T03:22:13.322Z,18.20
2018-12-27T03:24:44.133Z,18.67
2018-12-27T03:27:15.035Z,18.40
2018-12-27T03:29:45.908Z,19.13
2018-12-27T03:32:16.913Z,19.00
2018-12-27T03:34:47.774Z,17.97
2018-12-27T03:37:20.003Z,19.20
2018-12-27T03:39:50.898Z,18.80
2018-12-27T03:42:21.721Z,19.50
2018-12-27T03:44:52.598Z,18.70
2018-12-27T03:47:23.508Z,19.87
2018-12-27T03:49:54.414Z,17.83
2018-12-27T03:52:25.165Z,18.67
2018-12-27T03:54:56.048Z,17.70
2018-12-27T03:57:26.862Z,19.60
2018-12-27T03:59:57.741Z,19.40
2018-12-27T04:02:29.053Z,19.97
2018-12-27T04:04:59.852Z,18.97
2018-12-27T04:07:30.662Z,18.70
2018-12-27T04:10:02.431Z,19.23
2018-12-27T04:12:33.737Z,18.53
2018-12-27T04:15:10.419Z,18.97
2018-12-27T04:17:41.157Z,18.50
2018-12-27T04:20:11.798Z,19.37
2018-12-27T04:22:42.459Z,19.13
2018-12-27T04:25:13.085Z,17.60
2018-12-27T04:27:43.737Z,17.67
2018-12-27T04:30:14.373Z,18.53
2018-12-27T04:32:45.538Z,18.57
2018-12-27T04:35:16.458Z,18.00
2018-12-27T04:37:47.238Z,18.07
2018-12-27T04:40:17.955Z,19.63
2018-12-27T04:42:48.790Z,18.90
2018-12-27T04:45:19.375Z,19.40
2018-12-27T04:47:50.139Z,19.37
2018-12-27T04:50:20.327Z,17.17
2018-12-27T04:52:51.151Z,20.40
2018-12-27T04:55:22.019Z,18.30
2018-12-27T04:57:52.870Z,16.40
2018-12-27T05:00:23.630Z,17.77
2018-12-27T05:02:54.329Z,16.63
2018-12-27T05:05:25.080Z,17.03
2018-12-27T05:07:55.750Z,17.13
2018-12-27T05:10:27.218Z,16.63
2018-12-27T05:12:58.115Z,16.63
2018-12-27T05:15:28.923Z,18.00
2018-12-27T05:17:59.772Z,16.67
2018-12-27T05:20:31.834Z,19.90
2018-12-27T05:23:02.687Z,18.23
2018-12-27T05:25:33.585Z,20.90
2018-12-27T05:28:04.330Z,18.90
2018-12-27T05:30:35.052Z,18.80
2018-12-27T05:33:06.586Z,18.33
2018-12-27T05:35:37.527Z,18.63
2018-12-27T05:38:08.294Z,18.00
2018-12-27T05:40:39.041Z,19.03
2018-12-27T05:43:09.789Z,19.27
2018-12-27T05:45:40.558Z,19.17
2018-12-27T05:48:11.209Z,19.00
2018-12-27T05:50:41.931Z,19.03
2018-12-27T05:53:12.657Z,19.07
2018-12-27T05:55:43.349Z,17.93
2018-12-27T05:58:14.124Z,18.50
2018-12-27T06:00:45.000Z,18.20
2018-12-27T06:03:15.882Z,20.07
2018-12-27T06:05:46.979Z,19.37
2018-12-27T06:08:17.876Z,18.10
2018-12-27T06:10:48.764Z,18.33
2018-12-27T06:13:19.668Z,18.50
2018-12-27T06:15:50.518Z,20.27
2018-12-27T06:18:21.317Z,20.10
2018-12-27T06:20:52.215Z,20.67
2018-12-27T06:23:23.094Z,23.50
2018-12-27T06:25:55.478Z,22.73
2018-12-27T06:28:26.137Z,18.70
2018-12-27T06:30:57.747Z,17.80
2018-12-27T06:33:28.558Z,17.97
2018-12-27T06:35:59.527Z,20.50
2018-12-27T06:38:30.511Z,26.37
2018-12-27T06:41:01.450Z,31.23
2018-12-27T06:43:32.197Z,26.77
2018-12-27T06:46:03.129Z,18.40
2018-12-27T06:48:33.982Z,20.97
2018-12-27T06:51:04.649Z,20.40
2018-12-27T06:53:35.358Z,19.30
2018-12-27T06:56:06.035Z,21.60
2018-12-27T06:58:37.851Z,21.70
2018-12-27T07:01:08.957Z,20.43
2018-12-27T07:03:39.589Z,19.37
2018-12-27T07:06:10.267Z,18.53
2018-12-27T07:08:40.986Z,16.70
2018-12-27T07:11:11.717Z,13.87
2018-12-27T07:13:42.425Z,15.03
2018-12-27T07:16:13.155Z,14.57
2018-12-27T07:18:43.877Z,17.37
2018-12-27T07:21:19.652Z,32.77
2018-12-27T07:30:53.325Z,19.10
2018-12-27T07:33:23.530Z,18.97
2018-12-27T07:35:54.402Z,17.70
2018-12-27T07:38:25.124Z,20.00
2018-12-27T07:54:28.245Z,24.20
2018-12-27T08:00:19.602Z,19.03
2018-12-27T08:02:50.329Z,20.53
2018-12-27T08:05:20.969Z,19.53
2018-12-27T08:07:51.705Z,18.37
2018-12-27T08:41:58.791Z,22.37
2018-12-27T08:44:29.678Z,22.80
2018-12-27T08:47:25.659Z,18.80
2018-12-27T08:49:56.207Z,18.37
2018-12-27T08:52:26.930Z,17.50
2018-12-27T08:55:12.894Z,21.20
2018-12-27T08:57:43.629Z,19.00
2018-12-27T09:00:14.262Z,17.53
2018-12-27T09:02:53.246Z,17.57
2018-12-27T09:05:25.053Z,16.30
2018-12-27T09:07:55.873Z,16.20
2018-12-27T09:10:26.000Z,16.53
2018-12-27T09:12:56.690Z,16.00
2018-12-27T09:15:27.409Z,16.67
2018-12-27T09:17:58.069Z,16.23
2018-12-27T09:20:28.708Z,17.33
2018-12-27T09:23:16.817Z,16.80
2018-12-27T09:25:47.543Z,16.80
2018-12-27T09:28:18.405Z,16.87
2018-12-27T09:34:26.438Z,14.83
2018-12-27T09:37:01.417Z,15.40
2018-12-27T09:39:32.149Z,16.10
2018-12-27T09:42:02.918Z,16.40
2018-12-27T09:44:48.905Z,16.57
2018-12-27T09:47:22.677Z,19.47
2018-12-27T09:50:44.401Z,17.50
2018-12-27T09:53:41.774Z,18.13
2018-12-27T09:57:05.277Z,17.60
2018-12-27T10:00:23.027Z,15.60
2018-12-27T10:03:21.922Z,17.67
2018-12-27T10:06:01.255Z,16.53
2018-12-27T10:08:35.629Z,16.57
2018-12-27T10:11:06.326Z,16.97
2018-12-27T10:13:37.061Z,18.00
2018-12-27T10:16:07.687Z,16.37
2018-12-27T10:18:38.418Z,16.30
2018-12-27T10:21:09.137Z,15.77
2018-12-27T10:23:39.710Z,15.43
2018-12-27T10:26:10.412Z,16.60
2018-12-27T10:28:41.073Z,16.00
2018-12-27T10:31:11.673Z,14.50
2018-12-27T10:33:42.328Z,15.63
2018-12-27T10:36:13.023Z,16.23
2018-12-27T10:38:43.779Z,16.23
2018-12-27T10:41:14.485Z,15.87
2018-12-27T10:43:45.061Z,16.60
2018-12-27T10:46:21.576Z,15.37
2018-12-27T10:48:51.718Z,15.80
2018-12-27T10:51:22.153Z,16.70
2018-12-27T10:53:52.861Z,16.57
2018-12-27T10:56:23.545Z,15.10
2018-12-27T10:58:58.234Z,15.67
2018-12-27T11:01:30.405Z,17.17
2018-12-27T11:04:01.061Z,16.70
2018-12-27T11:06:31.621Z,17.27
2018-12-27T11:09:02.725Z,14.80
2018-12-27T11:11:33.467Z,16.20
2018-12-27T11:14:04.172Z,16.97
2018-12-27T11:16:34.795Z,15.97
2018-12-27T11:19:06.517Z,15.43
2018-12-27T11:21:37.217Z,17.43
2018-12-27T11:24:07.926Z,16.20
2018-12-27T11:26:38.613Z,16.03
2018-12-27T11:29:09.361Z,15.43
2018-12-27T11:31:40.062Z,15.90
2018-12-27T11:34:10.839Z,16.00
2018-12-27T11:36:42.532Z,16.80
2018-12-27T11:39:13.221Z,12.97
2018-12-27T11:41:43.993Z,13.83
2018-12-27T11:44:14.570Z,13.27
2018-12-27T11:46:45.498Z,11.40
2018-12-27T11:49:16.229Z,12.17
2018-12-27T11:51:46.860Z,11.73
2018-12-27T11:54:17.596Z,13.30
2018-12-27T11:56:48.385Z,15.00
2018-12-27T11:59:19.269Z,12.57
2018-12-27T12:01:51.060Z,13.97
2018-12-27T12:04:21.638Z,15.70
2018-12-27T12:06:52.637Z,14.30
2018-12-27T12:09:23.527Z,13.93
2018-12-27T12:11:54.216Z,14.73
2018-12-27T12:14:24.952Z,14.80
2018-12-27T12:16:55.633Z,15.20
2018-12-27T12:19:26.281Z,15.17
2018-12-27T12:21:56.913Z,16.03
2018-12-27T12:24:27.557Z,15.53
2018-12-27T12:26:58.185Z,15.40
2018-12-27T12:29:28.903Z,15.53
2018-12-27T12:31:59.588Z,16.40
2018-12-27T12:34:30.166Z,16.87
2018-12-27T12:37:01.177Z,15.13
2018-12-27T12:39:31.817Z,15.90
2018-12-27T12:42:02.442Z,15.70
2018-12-27T12:44:33.194Z,16.20
2018-12-27T12:47:03.953Z,15.90
2018-12-27T12:49:34.641Z,15.10
2018-12-27T12:52:05.282Z,14.50
2018-12-27T12:54:35.938Z,14.40
2018-12-27T12:57:06.589Z,16.03
2018-12-27T12:59:37.209Z,16.10
2018-12-27T13:02:07.749Z,14.13
2018-12-27T13:04:38.401Z,17.13
2018-12-27T13:07:09.012Z,15.40
2018-12-27T13:09:39.684Z,14.30
2018-12-27T13:12:10.221Z,14.30
2018-12-27T13:14:40.877Z,14.33
2018-12-27T13:17:11.573Z,14.80
2018-12-27T13:19:42.191Z,14.47
2018-12-27T13:22:12.916Z,14.40
2018-12-27T13:24:43.528Z,15.20
2018-12-27T13:27:14.179Z,15.23
2018-12-27T13:29:44.869Z,14.47
2018-12-27T13:32:15.525Z,15.50
2018-12-27T13:34:48.858Z,15.60
2018-12-27T13:37:19.595Z,15.27
2018-12-27T13:39:50.285Z,14.70
2018-12-27T13:42:22.065Z,15.10
2018-12-27T13:44:53.091Z,15.80
2018-12-27T13:47:23.934Z,15.53
2018-12-27T13:49:54.695Z,13.93
2018-12-27T13:52:25.348Z,15.23
2018-12-27T13:54:56.210Z,13.70
2018-12-27T13:57:27.209Z,14.90
2018-12-27T13:59:58.200Z,15.10
2018-12-27T14:02:29.097Z,14.33
2018-12-27T14:04:59.794Z,14.47
2018-12-27T14:07:30.516Z,15.17
2018-12-27T14:10:01.250Z,16.60
2018-12-27T14:12:32.266Z,16.50
2018-12-27T14:15:02.962Z,16.30
2018-12-27T14:17:34.808Z,15.20
2018-12-27T14:20:07.159Z,16.30
2018-12-27T14:22:37.897Z,15.50
2018-12-27T14:25:08.537Z,14.47
2018-12-27T14:27:39.378Z,14.77
2018-12-27T14:30:10.132Z,16.63
2018-12-27T14:32:40.866Z,16.40
2018-12-27T14:35:11.756Z,16.33
2018-12-27T14:37:42.696Z,16.30
2018-12-27T14:40:13.289Z,21.33
2018-12-27T14:42:44.566Z,24.13
2018-12-27T14:45:15.377Z,29.70
2018-12-27T14:47:46.042Z,27.83
2018-12-27T14:50:16.797Z,21.63
2018-12-27T14:52:47.525Z,21.73
2018-12-27T14:55:18.325Z,23.23
2018-12-27T14:57:49.109Z,27.00
2018-12-27T15:00:19.825Z,25.60
2018-12-27T15:02:50.467Z,24.40
2018-12-27T15:05:21.434Z,21.30
2018-12-27T15:07:52.081Z,19.90
2018-12-27T15:10:22.798Z,20.57
2018-12-27T15:12:53.526Z,22.03
2018-12-27T15:15:24.162Z,20.27
2018-12-27T15:17:54.870Z,20.57
2018-12-27T15:20:26.546Z,21.63
2018-12-27T15:22:57.273Z,23.80
2018-12-27T15:25:27.961Z,23.27
2018-12-27T15:27:58.534Z,25.67
2018-12-27T15:30:29.241Z,29.70
2018-12-27T15:32:59.876Z,27.70
2018-12-27T15:35:30.516Z,26.87
2018-12-27T15:38:01.264Z,24.77
2018-12-27T15:40:31.813Z,26.10
2018-12-27T15:43:02.468Z,24.80
2018-12-27T15:45:33.099Z,29.93
2018-12-27T15:48:03.821Z,26.30
2018-12-27T15:50:34.453Z,26.93
2018-12-27T15:53:05.101Z,24.17
2018-12-27T15:55:35.709Z,22.30
2018-12-27T15:58:06.356Z,23.43
2018-12-27T16:00:37.054Z,22.20
2018-12-27T16:03:07.637Z,21.13
2018-12-27T16:05:38.428Z,22.50
2018-12-27T16:08:09.077Z,22.73
2018-12-27T16:10:40.802Z,23.43
2018-12-27T16:13:11.581Z,22.13
2018-12-27T16:15:42.310Z,21.57
2018-12-27T16:18:13.045Z,26.73
2018-12-27T16:20:43.719Z,27.10
2018-12-27T16:23:14.452Z,27.17
2018-12-27T16:25:45.146Z,27.67
2018-12-27T16:28:16.349Z,27.97
2018-12-27T16:30:47.939Z,29.17
2018-12-27T16:33:18.728Z,30.67
2018-12-27T16:35:50.473Z,29.37
2018-12-27T16:38:21.595Z,28.93
2018-12-27T16:40:52.344Z,28.87
2018-12-27T16:43:23.017Z,27.17
2018-12-27T16:45:53.721Z,25.30
2018-12-27T16:48:24.205Z,26.40
2018-12-27T16:50:55.029Z,26.30
2018-12-27T16:53:25.726Z,28.23
2018-12-27T16:55:56.389Z,26.60
2018-12-27T16:58:27.099Z,27.27
2018-12-27T17:00:57.806Z,29.00
2018-12-27T17:03:29.075Z,30.47
2018-12-27T17:05:59.783Z,33.27
2018-12-27T17:08:31.610Z,34.57
2018-12-27T17:11:03.182Z,36.27
2018-12-27T17:13:34.018Z,36.10
2018-12-27T17:16:04.661Z,34.47
2018-12-27T17:18:35.429Z,36.20
2018-12-27T17:21:06.054Z,36.07
2018-12-27T17:23:36.785Z,34.83
2018-12-27T17:26:07.484Z,35.17
2018-12-27T17:28:38.142Z,34.33
2018-12-27T17:31:08.869Z,32.37
2018-12-27T17:33:39.637Z,32.77
2018-12-27T17:36:10.258Z,33.57
2018-12-27T17:38:41.045Z,32.20
2018-12-27T17:41:11.746Z,31.17
2018-12-27T17:43:42.419Z,32.07
2018-12-27T17:46:13.067Z,33.50
2018-12-27T17:48:43.836Z,32.77
2018-12-27T17:51:14.622Z,32.77
2018-12-27T17:53:45.393Z,32.53
2018-12-27T17:56:16.038Z,32.53
2018-12-27T17:58:47.181Z,33.30
2018-12-27T18:01:17.817Z,34.50
2018-12-27T18:03:48.549Z,31.90
2018-12-27T18:06:19.119Z,31.23
2018-12-27T18:08:49.882Z,33.60
2018-12-27T18:11:20.518Z,32.17
2018-12-27T18:13:51.307Z,31.80
2018-12-27T18:16:22.022Z,31.63
2018-12-27T18:18:52.816Z,31.07
2018-12-27T18:21:23.466Z,30.97
2018-12-27T18:23:54.354Z,36.17
2018-12-27T18:26:24.482Z,32.00
2018-12-27T18:28:55.156Z,32.53
2018-12-27T18:31:25.867Z,32.20
2018-12-27T18:33:57.904Z,32.60
2018-12-27T18:36:28.633Z,31.03
2018-12-27T18:38:59.429Z,33.10
2018-12-27T18:41:30.099Z,33.43
2018-12-27T18:44:00.832Z,34.93
2018-12-27T18:46:31.585Z,35.60
2018-12-27T18:49:03.988Z,34.07
2018-12-27T18:51:35.106Z,30.90
2018-12-27T18:54:06.248Z,31.67
2018-12-27T18:56:45.321Z,31.67
2018-12-27T18:59:25.569Z,30.60
2018-12-27T19:01:56.326Z,32.27
2018-12-27T19:04:32.287Z,32.37
2018-12-27T19:07:04.991Z,40.03
2018-12-27T19:09:40.992Z,39.43
2018-12-27T19:12:47.801Z,37.37
2018-12-27T19:15:22.254Z,40.03
2018-12-27T19:18:14.718Z,31.43
2018-12-27T19:20:49.991Z,32.47
2018-12-27T19:23:22.347Z,34.20
2018-12-27T19:25:53.426Z,34.40
2018-12-27T19:28:38.657Z,31.40
2018-12-27T19:31:26.804Z,33.80
2018-12-27T19:33:58.611Z,35.10
2018-12-27T19:36:37.686Z,33.10
2018-12-27T19:39:07.707Z,32.07
2018-12-27T19:41:38.574Z,35.10
2018-12-27T19:44:11.832Z,33.37
2018-12-27T19:46:45.098Z,29.10
2018-12-27T19:49:16.402Z,29.00
2018-12-27T19:51:49.381Z,31.17
2018-12-27T19:54:20.694Z,30.87
2018-12-27T19:57:02.550Z,29.93
2018-12-27T19:59:34.171Z,29.10
2018-12-27T20:02:06.270Z,29.30
2018-12-27T20:04:40.452Z,29.57
2018-12-27T20:07:13.711Z,29.70
2018-12-27T20:09:53.245Z,30.20
2018-12-27T20:12:27.276Z,30.60
2018-12-27T20:14:58.607Z,32.97
2018-12-27T20:17:33.071Z,34.70
2018-12-27T20:20:14.079Z,33.30
2018-12-27T20:22:41.217Z,31.97
2018-12-27T20:25:13.334Z,33.80
2018-12-27T20:27:45.632Z,33.23
2018-12-27T20:30:16.541Z,37.50
2018-12-27T20:32:47.796Z,36.60
2018-12-27T20:35:18.953Z,36.23
2018-12-27T20:37:49.886Z,37.07
2018-12-27T20:40:28.635Z,34.10
2018-12-27T20:43:01.770Z,34.00
2018-12-27T20:45:42.827Z,31.87
2018-12-27T20:48:16.094Z,33.43
2018-12-27T20:50:52.039Z,32.40
2018-12-27T20:53:24.668Z,29.07
2018-12-27T20:55:55.895Z,28.67
2018-12-27T20:58:26.646Z,27.80
2018-12-27T21:00:58.584Z,28.37
2018-12-27T21:03:29.323Z,26.90
2018-12-27T21:06:00.037Z,26.23
2018-12-27T21:08:30.795Z,27.73
2018-12-27T21:11:01.430Z,28.93
2018-12-27T21:13:32.216Z,29.97
2018-12-27T21:16:07.236Z,31.30
2018-12-27T21:18:38.007Z,35.37
2018-12-27T21:21:08.146Z,42.07
2018-12-27T21:23:38.789Z,37.70
2018-12-27T21:26:09.437Z,35.90
2018-12-27T21:28:41.339Z,36.57
2018-12-27T21:31:12.029Z,36.03
2018-12-27T21:33:43.073Z,34.23
2018-12-27T21:36:13.818Z,37.63
2018-12-27T21:38:44.570Z,37.10
2018-12-27T21:41:15.217Z,35.93
2018-12-27T21:43:48.032Z,36.40
2018-12-27T21:46:18.741Z,33.20
2018-12-27T21:48:49.392Z,39.90
2018-12-27T21:51:20.108Z,38.43
2018-12-27T21:53:50.761Z,36.37
2018-12-27T21:56:21.398Z,35.50
2018-12-27T21:58:52.077Z,36.80
2018-12-27T22:01:23.233Z,39.93
2018-12-27T22:03:53.965Z,36.70
2018-12-27T22:06:24.682Z,35.00
2018-12-27T22:08:55.401Z,34.30
2018-12-27T22:11:26.040Z,33.87
2018-12-27T22:13:56.842Z,30.83
2018-12-27T22:16:27.614Z,30.70
2018-12-27T22:18:58.274Z,29.80
2018-12-27T22:21:28.986Z,30.50
2018-12-27T22:23:59.712Z,28.87
2018-12-27T22:26:30.427Z,33.37
2018-12-27T22:29:01.164Z,32.20
2018-12-27T22:31:31.868Z,31.60
2018-12-27T22:34:02.525Z,29.70
2018-12-27T22:36:33.234Z,31.27
2018-12-27T22:39:05.445Z,31.10
2018-12-27T22:41:36.097Z,27.57
2018-12-27T22:44:06.834Z,28.83
2018-12-27T22:46:37.461Z,28.97
2018-12-27T22:49:08.117Z,26.70
2018-12-27T22:51:38.684Z,29.80
2018-12-27T22:54:09.414Z,27.70
2018-12-27T22:56:40.124Z,29.13
2018-12-27T22:59:10.833Z,26.90
2018-12-27T23:01:41.470Z,25.93
2018-12-27T23:04:12.058Z,26.70
2018-12-27T23:06:42.784Z,27.30
2018-12-27T23:09:13.537Z,29.43
2018-12-27T23:11:44.161Z,28.03
2018-12-27T23:14:14.885Z,29.13
2018-12-27T23:16:45.590Z,29.73
2018-12-27T23:19:16.320Z,32.23
2018-12-27T23:21:47.020Z,34.10
2018-12-27T23:24:17.682Z,33.83
2018-12-27T23:26:48.257Z,35.10
2018-12-27T23:29:18.929Z,34.10
2018-12-27T23:31:49.625Z,35.40
2018-12-27T23:34:20.357Z,35.23
2018-12-27T23:36:50.951Z,35.73
2018-12-27T23:39:21.626Z,35.07
2018-12-27T23:41:52.357Z,34.30
2018-12-27T23:44:23.065Z,33.43
2018-12-27T23:46:53.738Z,31.00
2018-12-27T23:49:24.373Z,31.20
2018-12-27T23:51:55.107Z,27.57
2018-12-27T23:54:25.744Z,28.77
2018-12-27T23:56:56.502Z,29.03
2018-12-27T23:59:27.205Z,27.53
